createdAt,value
2019-04-07T00:00:26.557Z,21.02
2019-04-07T00:02:54.913Z,24.63
2019-04-07T00:05:23.289Z,23.73
2019-04-07T00:07:51.648Z,26.10
2019-04-07T00:10:20.379Z,30.52
2019-04-07T00:12:48.897Z,33.18
2019-04-07T00:15:17.255Z,37.33
2019-04-07T00:17:45.636Z,40.85
2019-04-07T00:20:13.986Z,38.58
2019-04-07T00:22:42.383Z,42.25
2019-04-07T00:25:10.755Z,44.93
2019-04-07T00:27:39.172Z,45.10
2019-04-07T00:30:07.620Z,47.48
2019-04-07T00:32:36.162Z,45.78
2019-04-07T00:35:06.284Z,46.70
2019-04-07T00:37:34.652Z,46.25
2019-04-07T00:40:03.338Z,47.65
2019-04-07T00:42:31.652Z,44.05
2019-04-07T00:45:00.028Z,42.15
2019-04-07T00:47:28.552Z,39.23
2019-04-07T00:49:57.607Z,35.50
2019-04-07T00:52:26.039Z,33.98
2019-04-07T00:54:54.596Z,35.68
2019-04-07T00:57:23.303Z,33.45
2019-04-07T00:59:51.664Z,33.25
2019-04-07T01:02:21.252Z,32.60
2019-04-07T01:04:49.751Z,28.07
2019-04-07T01:07:18.071Z,32.93
2019-04-07T01:09:46.445Z,35.73
2019-04-07T01:12:14.923Z,34.50
2019-04-07T01:14:43.440Z,32.40
2019-04-07T01:17:11.731Z,29.75
2019-04-07T01:19:40.622Z,29.87
2019-04-07T01:22:09.272Z,26.07
2019-04-07T01:24:37.982Z,28.65
2019-04-07T01:27:06.599Z,25.15
2019-04-07T01:29:35.386Z,23.50
2019-04-07T01:32:03.951Z,21.50
2019-04-07T01:34:32.298Z,24.23
2019-04-07T01:37:01.024Z,26.87
2019-04-07T01:39:29.516Z,27.15
2019-04-07T01:42:09.142Z,32.13
2019-04-07T01:44:42.259Z,36.15
2019-04-07T01:47:21.687Z,35.23
2019-04-07T01:50:04.025Z,32.88
2019-04-07T01:52:36.737Z,31.93
2019-04-07T01:55:19.302Z,31.45
2019-04-07T01:57:52.328Z,32.42
2019-04-07T02:00:22.650Z,33.70
2019-04-07T02:02:55.515Z,33.70
2019-04-07T02:05:41.880Z,49.18
2019-04-07T02:08:27.353Z,52.00
2019-04-07T02:10:58.227Z,49.20
2019-04-07T02:13:37.787Z,51.80
2019-04-07T02:16:11.436Z,59.58
2019-04-07T02:18:41.585Z,55.25
2019-04-07T02:21:27.338Z,52.05
2019-04-07T02:24:00.175Z,56.92
2019-04-07T02:26:42.311Z,43.15
2019-04-07T02:29:18.309Z,43.25
2019-04-07T02:31:58.080Z,42.48
2019-04-07T02:34:29.564Z,44.38
2019-04-07T02:37:03.220Z,49.93
2019-04-07T02:39:39.160Z,51.18
2019-04-07T02:42:25.354Z,54.23
2019-04-07T02:45:13.638Z,56.50
2019-04-07T02:47:46.795Z,51.90
2019-04-07T02:50:22.692Z,50.48
2019-04-07T02:52:52.952Z,34.38
2019-04-07T02:55:23.818Z,32.48
2019-04-07T02:57:59.642Z,35.92
2019-04-07T03:00:29.718Z,34.78
2019-04-07T03:02:59.781Z,35.78
2019-04-07T03:05:29.801Z,36.65
2019-04-07T03:07:59.798Z,38.85
2019-04-07T03:10:29.804Z,37.20
2019-04-07T03:13:00.928Z,38.28
2019-04-07T03:15:31.168Z,39.73
2019-04-07T03:18:04.775Z,32.35
2019-04-07T03:20:50.246Z,35.40
2019-04-07T03:23:36.401Z,34.92
2019-04-07T03:26:09.529Z,33.60
2019-04-07T03:28:49.391Z,37.00
2019-04-07T03:31:23.942Z,43.48
2019-04-07T03:33:56.226Z,35.33
2019-04-07T03:36:41.036Z,41.80
2019-04-07T03:39:10.774Z,35.10
2019-04-07T03:41:57.327Z,32.23
2019-04-07T03:44:27.674Z,32.95
2019-04-07T03:47:03.881Z,35.00
2019-04-07T03:49:34.994Z,32.25
2019-04-07T03:52:05.732Z,36.40
2019-04-07T03:54:36.653Z,34.53
2019-04-07T03:57:11.101Z,38.65
2019-04-07T03:59:53.582Z,38.48
2019-04-07T04:02:23.798Z,40.25
2019-04-07T04:04:53.802Z,40.98
2019-04-07T04:07:31.227Z,36.70
2019-04-07T04:09:58.214Z,40.12
2019-04-07T04:12:31.676Z,36.95
2019-04-07T04:15:02.017Z,36.73
2019-04-07T04:17:31.086Z,37.28
2019-04-07T04:19:59.442Z,36.58
2019-04-07T04:22:29.008Z,31.52
2019-04-07T04:24:57.792Z,29.70
2019-04-07T04:27:26.237Z,27.87
2019-04-07T04:29:55.237Z,28.45
2019-04-07T04:32:23.847Z,28.07
2019-04-07T04:34:53.065Z,32.90
2019-04-07T04:37:37.590Z,33.85
2019-04-07T04:39:51.597Z,32.55
2019-04-07T04:42:20.452Z,38.35
2019-04-07T04:44:49.048Z,36.25
2019-04-07T04:47:17.404Z,27.17
2019-04-07T04:49:45.781Z,26.40
2019-04-07T04:52:14.145Z,27.62
2019-04-07T04:54:42.531Z,17.67
2019-04-07T04:57:11.226Z,16.50
2019-04-07T04:59:40.281Z,14.38
2019-04-07T05:02:08.997Z,14.75
2019-04-07T05:04:37.519Z,17.48
2019-04-07T05:07:07.549Z,10.08
2019-04-07T05:09:44.508Z,9.45
2019-04-07T05:12:06.707Z,10.15
2019-04-07T05:14:35.340Z,8.73
2019-04-07T05:17:04.051Z,12.33
2019-04-07T05:19:32.478Z,8.03
2019-04-07T05:22:01.357Z,17.35
2019-04-07T05:24:30.144Z,11.22
2019-04-07T05:26:58.582Z,8.25
2019-04-07T05:29:26.960Z,10.98
2019-04-07T05:31:55.704Z,7.53
2019-04-07T05:34:24.176Z,7.00
2019-04-07T05:36:53.319Z,16.23
2019-04-07T05:39:21.784Z,12.25
2019-04-07T05:41:50.169Z,15.68
2019-04-07T05:44:18.908Z,11.28
2019-04-07T05:46:49.588Z,9.15
2019-04-07T05:49:18.580Z,8.80
2019-04-07T05:51:47.977Z,9.50
2019-04-07T05:54:18.977Z,6.50
2019-04-07T05:56:46.540Z,7.28
2019-04-07T05:59:15.661Z,7.35
2019-04-07T06:01:44.590Z,8.93
2019-04-07T06:04:17.526Z,17.57
2019-04-07T06:06:43.232Z,21.95
2019-04-07T06:09:11.603Z,13.65
2019-04-07T06:11:40.101Z,9.58
2019-04-07T06:14:08.624Z,9.05
2019-04-07T06:16:37.721Z,12.10
2019-04-07T06:19:07.987Z,7.40
2019-04-07T06:21:36.639Z,7.60
2019-04-07T06:24:05.189Z,8.38
2019-04-07T06:26:34.153Z,8.48
2019-04-07T06:29:02.691Z,14.20
2019-04-07T06:31:32.192Z,18.27
2019-04-07T06:34:01.083Z,15.88
2019-04-07T06:36:29.777Z,24.40
2019-04-07T06:38:58.240Z,41.80
2019-04-07T06:41:30.119Z,31.40
2019-04-07T06:44:08.707Z,51.35
2019-04-07T06:46:28.668Z,17.42
2019-04-07T06:49:02.585Z,24.75
2019-04-07T06:51:38.980Z,19.27
2019-04-07T06:54:27.499Z,13.03
2019-04-07T06:57:13.949Z,9.70
2019-04-07T06:59:47.160Z,10.68
2019-04-07T07:02:32.757Z,13.65
2019-04-07T07:05:18.932Z,12.93
2019-04-07T07:07:57.688Z,14.15
2019-04-07T07:10:41.624Z,12.80
2019-04-07T07:13:28.330Z,10.40
2019-04-07T07:15:55.433Z,10.43
2019-04-07T07:18:31.437Z,10.30
2019-04-07T07:21:05.078Z,10.85
2019-04-07T07:23:35.084Z,14.30
2019-04-07T07:26:04.206Z,11.08
2019-04-07T07:28:32.746Z,8.78
2019-04-07T07:31:01.075Z,7.65
2019-04-07T07:33:29.571Z,12.40
2019-04-07T07:35:58.276Z,13.48
2019-04-07T07:38:30.030Z,10.55
2019-04-07T07:40:56.968Z,10.88
2019-04-07T07:43:27.952Z,12.80
2019-04-07T07:45:55.646Z,10.13
2019-04-07T07:48:27.068Z,9.88
2019-04-07T07:50:54.545Z,10.45
2019-04-07T07:53:26.990Z,10.40
2019-04-07T07:55:53.229Z,11.70
2019-04-07T07:58:21.604Z,9.20
2019-04-07T08:00:50.617Z,7.40
2019-04-07T08:03:22.491Z,9.48
2019-04-07T08:05:49.180Z,9.68
2019-04-07T08:08:17.939Z,8.45
2019-04-07T08:10:47.326Z,14.80
2019-04-07T08:13:15.750Z,8.60
2019-04-07T08:15:44.443Z,9.53
2019-04-07T08:18:12.904Z,19.73
2019-04-07T08:20:44.892Z,8.38
2019-04-07T08:23:12.190Z,14.55
2019-04-07T08:25:41.295Z,11.80
2019-04-07T08:28:09.679Z,8.95
2019-04-07T08:30:38.277Z,7.47
2019-04-07T08:33:07.239Z,8.60
2019-04-07T08:35:39.468Z,7.42
2019-04-07T08:38:05.986Z,7.05
2019-04-07T08:40:36.465Z,10.45
2019-04-07T08:43:04.411Z,8.33
2019-04-07T08:45:32.955Z,6.85
2019-04-07T08:48:01.320Z,8.03
2019-04-07T08:50:29.836Z,7.50
2019-04-07T08:52:58.969Z,9.68
2019-04-07T08:55:28.206Z,13.45
2019-04-07T08:58:00.105Z,8.90
2019-04-07T09:00:29.316Z,6.12
2019-04-07T09:03:03.073Z,6.87
2019-04-07T09:05:31.014Z,12.58
2019-04-07T09:08:03.538Z,10.15
2019-04-07T09:10:37.212Z,8.68
2019-04-07T09:13:08.363Z,9.70
2019-04-07T09:15:40.816Z,8.28
2019-04-07T09:18:12.708Z,8.27
2019-04-07T09:21:00.787Z,7.13
2019-04-07T09:23:31.254Z,7.62
2019-04-07T09:26:04.344Z,6.30
2019-04-07T09:28:37.776Z,6.42
2019-04-07T09:31:17.550Z,30.30
2019-04-07T09:33:53.984Z,6.05
2019-04-07T09:36:42.949Z,7.72
2019-04-07T09:39:32.653Z,6.30
2019-04-07T09:42:09.989Z,13.53
2019-04-07T09:44:49.371Z,12.90
2019-04-07T09:47:19.615Z,11.55
2019-04-07T09:50:04.899Z,6.47
2019-04-07T09:52:37.845Z,10.00
2019-04-07T09:55:10.998Z,8.73
2019-04-07T09:57:41.853Z,10.45
2019-04-07T10:00:21.569Z,9.33
2019-04-07T10:02:55.519Z,19.10
2019-04-07T10:05:40.159Z,9.30
2019-04-07T10:08:13.792Z,10.23
2019-04-07T10:10:47.241Z,8.10
2019-04-07T10:13:34.200Z,7.15
2019-04-07T10:16:16.645Z,9.60
2019-04-07T10:18:46.648Z,7.95
2019-04-07T10:21:16.812Z,7.12
2019-04-07T10:23:53.005Z,7.47
2019-04-07T10:26:37.969Z,6.12
2019-04-07T10:29:11.039Z,6.95
2019-04-07T10:31:44.268Z,5.65
2019-04-07T10:34:14.929Z,5.53
2019-04-07T10:36:54.568Z,4.50
2019-04-07T10:39:30.822Z,5.05
2019-04-07T10:42:13.726Z,4.60
2019-04-07T10:44:44.013Z,4.25
2019-04-07T10:47:26.000Z,12.15
2019-04-07T10:50:06.861Z,6.12
2019-04-07T10:52:39.342Z,6.83
2019-04-07T10:55:24.192Z,4.08
2019-04-07T10:57:54.807Z,4.45
2019-04-07T11:00:37.608Z,4.70
2019-04-07T11:03:25.040Z,4.45
2019-04-07T11:06:07.337Z,4.42
2019-04-07T11:08:55.530Z,4.25
2019-04-07T11:11:41.197Z,6.33
2019-04-07T11:14:28.216Z,7.90
2019-04-07T11:17:02.320Z,5.97
2019-04-07T11:19:50.015Z,6.12
2019-04-07T11:22:33.767Z,5.67
2019-04-07T11:25:03.847Z,5.70
2019-04-07T11:27:37.581Z,6.90
2019-04-07T11:30:18.118Z,6.00
2019-04-07T11:32:57.589Z,5.40
2019-04-07T11:35:29.859Z,4.45
2019-04-07T11:38:05.819Z,3.10
2019-04-07T11:40:52.471Z,3.50
2019-04-07T11:43:34.836Z,2.92
2019-04-07T11:46:05.622Z,3.30
2019-04-07T11:48:47.483Z,4.90
2019-04-07T11:51:17.492Z,5.60
2019-04-07T11:54:03.246Z,7.10
2019-04-07T11:56:37.130Z,6.25
2019-04-07T11:59:22.244Z,5.28
2019-04-07T12:01:58.611Z,5.55
2019-04-07T12:04:46.954Z,6.62
2019-04-07T12:07:29.199Z,6.45
2019-04-07T12:10:08.328Z,5.97
2019-04-07T12:12:38.629Z,6.30
2019-04-07T12:15:26.917Z,6.70
2019-04-07T12:18:17.503Z,6.08
2019-04-07T12:21:02.285Z,6.15
2019-04-07T12:23:33.721Z,5.40
2019-04-07T12:26:05.889Z,6.40
2019-04-07T12:28:47.616Z,7.63
2019-04-07T12:31:17.367Z,5.45
2019-04-07T12:33:50.654Z,6.33
2019-04-07T12:36:31.797Z,5.10
2019-04-07T12:39:20.251Z,4.65
2019-04-07T12:42:08.332Z,6.72
2019-04-07T12:44:39.800Z,4.47
2019-04-07T12:47:22.469Z,5.07
2019-04-07T12:52:28.101Z,7.10
2019-04-07T12:55:11.899Z,6.67
2019-04-07T12:57:43.628Z,4.85
2019-04-07T13:00:22.728Z,4.37
2019-04-07T13:03:00.108Z,4.20
2019-04-07T13:05:35.502Z,4.47
2019-04-07T13:08:24.138Z,5.45
2019-04-07T13:10:53.605Z,4.08
2019-04-07T13:13:29.492Z,4.10
2019-04-07T13:16:14.571Z,10.65
2019-04-07T13:18:57.040Z,34.67
2019-04-07T13:21:44.677Z,5.40
2019-04-07T13:24:22.098Z,7.83
2019-04-07T13:26:55.149Z,43.77
2019-04-07T13:29:29.061Z,6.58
2019-04-07T13:32:06.351Z,8.13
2019-04-07T13:34:39.284Z,8.35
2019-04-07T13:37:26.482Z,9.20
2019-04-07T13:40:10.146Z,5.40
2019-04-07T13:42:37.884Z,5.20
2019-04-07T13:45:14.251Z,4.95
2019-04-07T13:47:44.867Z,6.92
2019-04-07T13:50:24.509Z,5.90
2019-04-07T13:53:12.081Z,5.55
2019-04-07T13:55:58.548Z,5.55
2019-04-07T13:58:37.305Z,6.15
2019-04-07T14:01:07.419Z,6.40
2019-04-07T14:03:56.537Z,7.60
2019-04-07T14:06:25.567Z,5.85
2019-04-07T14:09:02.403Z,10.68
2019-04-07T14:12:01.570Z,11.53
2019-04-07T14:14:19.313Z,9.50
2019-04-07T14:16:55.372Z,6.50
2019-04-07T14:19:28.853Z,5.10
2019-04-07T14:22:02.182Z,5.67
2019-04-07T14:24:38.369Z,5.60
2019-04-07T14:27:17.148Z,5.25
2019-04-07T14:29:52.961Z,5.25
2019-04-07T14:32:39.105Z,5.60
2019-04-07T14:35:15.141Z,6.75
2019-04-07T14:37:48.403Z,6.92
2019-04-07T14:40:27.977Z,6.05
2019-04-07T14:43:01.171Z,5.85
2019-04-07T14:45:32.060Z,5.85
2019-04-07T14:48:02.196Z,6.33
2019-04-07T14:50:44.833Z,6.10
2019-04-07T14:55:53.340Z,16.48
2019-04-07T14:58:23.356Z,6.03
2019-04-07T15:00:53.364Z,6.03
2019-04-07T15:03:21.751Z,6.87
2019-04-07T15:05:55.153Z,6.55
2019-04-07T15:08:23.689Z,7.47
2019-04-07T15:10:56.554Z,6.92
2019-04-07T15:13:28.218Z,6.15
2019-04-07T15:15:57.145Z,7.47
2019-04-07T15:18:25.664Z,7.25
2019-04-07T15:20:54.022Z,6.47
2019-04-07T15:23:22.978Z,6.45
2019-04-07T15:25:51.605Z,6.53
2019-04-07T15:28:20.236Z,6.80
2019-04-07T15:30:49.488Z,6.33
2019-04-07T15:33:18.796Z,7.03
2019-04-07T15:35:50.135Z,6.22
2019-04-07T15:38:17.176Z,6.87
2019-04-07T15:40:45.960Z,6.97
2019-04-07T15:43:14.401Z,6.50
2019-04-07T15:45:44.469Z,6.72
2019-04-07T15:48:13.568Z,6.85
2019-04-07T15:50:42.047Z,13.25
2019-04-07T15:53:13.514Z,65.87
2019-04-07T15:55:48.799Z,13.38
2019-04-07T15:58:10.738Z,6.35
2019-04-07T16:00:39.228Z,9.63
2019-04-07T16:03:08.489Z,9.48
2019-04-07T16:05:42.172Z,10.75
2019-04-07T16:08:07.073Z,6.95
2019-04-07T16:10:36.007Z,63.73
2019-04-07T16:13:04.761Z,24.98
2019-04-07T16:15:33.253Z,46.58
2019-04-07T16:18:04.755Z,12.63
2019-04-07T16:20:37.237Z,41.75
2019-04-07T16:23:02.016Z,24.10
2019-04-07T16:25:30.388Z,50.73
2019-04-07T16:27:58.827Z,43.23
2019-04-07T16:30:27.530Z,30.50
2019-04-07T16:33:00.573Z,20.52
2019-04-07T16:35:26.358Z,9.15
2019-04-07T16:37:55.393Z,11.00
2019-04-07T16:40:24.887Z,8.98
2019-04-07T16:43:04.350Z,17.35
2019-04-07T16:45:23.446Z,28.83
2019-04-07T16:47:51.811Z,9.78
2019-04-07T16:50:21.436Z,9.38
2019-04-07T16:52:49.975Z,20.27
2019-04-07T16:55:39.973Z,15.00
2019-04-07T16:58:09.542Z,12.53
2019-04-07T17:00:38.413Z,13.58
2019-04-07T17:03:07.982Z,11.90
2019-04-07T17:05:36.495Z,11.10
2019-04-07T17:08:05.456Z,9.63
2019-04-07T17:10:35.323Z,20.17
2019-04-07T17:13:15.304Z,11.83
2019-04-07T17:15:38.210Z,26.55
2019-04-07T17:18:07.599Z,18.45
2019-04-07T17:20:37.726Z,10.30
2019-04-07T17:23:07.111Z,8.65
2019-04-07T17:25:35.957Z,8.00
2019-04-07T17:28:06.399Z,8.48
2019-04-07T17:30:38.413Z,7.22
2019-04-07T17:33:06.686Z,7.20
2019-04-07T17:35:36.976Z,7.08
2019-04-07T17:38:08.589Z,7.58
2019-04-07T17:40:43.273Z,7.10
2019-04-07T17:43:29.521Z,7.15
2019-04-07T17:46:08.334Z,6.40
2019-04-07T17:48:56.730Z,6.75
2019-04-07T17:51:28.693Z,6.87
2019-04-07T17:54:17.408Z,7.05
2019-04-07T17:57:01.150Z,6.65
2019-04-07T17:59:47.895Z,7.28
2019-04-07T18:02:32.266Z,7.90
2019-04-07T18:05:01.632Z,9.33
2019-04-07T18:07:48.795Z,8.15
2019-04-07T18:10:22.567Z,8.53
2019-04-07T18:13:00.002Z,7.95
2019-04-07T18:15:39.390Z,8.28
2019-04-07T18:18:18.774Z,8.13
2019-04-07T18:20:48.591Z,8.00
2019-04-07T18:23:37.136Z,8.00
2019-04-07T18:26:10.638Z,8.58
2019-04-07T18:28:55.187Z,8.15
2019-04-07T18:31:24.727Z,7.65
2019-04-07T18:34:04.170Z,7.90
2019-04-07T18:36:52.415Z,8.68
2019-04-07T18:39:38.741Z,7.65
2019-04-07T18:42:17.774Z,8.00
2019-04-07T18:44:49.031Z,9.15
2019-04-07T18:50:04.051Z,9.38
2019-04-07T18:52:39.872Z,10.10
2019-04-07T18:55:10.981Z,9.93
2019-04-07T18:57:42.623Z,9.85
2019-04-07T19:00:12.928Z,8.63
2019-04-07T19:02:59.228Z,9.28
2019-04-07T19:05:38.119Z,9.40
2019-04-07T19:08:08.146Z,10.50
2019-04-07T19:10:41.360Z,9.63
2019-04-07T19:13:15.944Z,9.48
2019-04-07T19:15:58.358Z,9.20
2019-04-07T19:18:28.356Z,8.93
2019-04-07T19:21:14.257Z,9.25
2019-04-07T19:23:53.904Z,9.23
2019-04-07T19:26:27.822Z,9.98
2019-04-07T19:29:01.601Z,10.15
2019-04-07T19:31:50.498Z,9.55
2019-04-07T19:34:35.574Z,9.80
2019-04-07T19:37:06.024Z,9.58
2019-04-07T19:39:42.528Z,10.60
2019-04-07T19:42:18.161Z,10.13
2019-04-07T19:44:51.060Z,10.65
2019-04-07T19:47:26.279Z,10.28
2019-04-07T19:50:12.954Z,10.05
2019-04-07T19:52:59.514Z,9.93
2019-04-07T19:55:36.661Z,10.08
2019-04-07T19:58:09.830Z,9.80
2019-04-07T20:00:39.960Z,9.68
2019-04-07T20:03:19.999Z,9.95
2019-04-07T20:06:07.128Z,10.13
2019-04-07T20:08:37.551Z,10.50
2019-04-07T20:11:07.625Z,10.32
2019-04-07T20:13:40.470Z,9.83
2019-04-07T20:16:13.762Z,10.38
2019-04-07T20:18:58.848Z,10.32
2019-04-07T20:21:36.582Z,10.30
2019-04-07T20:24:15.269Z,10.18
2019-04-07T20:27:01.605Z,9.80
2019-04-07T20:29:44.768Z,9.83
2019-04-07T20:32:16.540Z,10.55
2019-04-07T20:34:55.526Z,10.32
2019-04-07T20:37:31.112Z,9.55
2019-04-07T20:40:03.553Z,9.60
2019-04-07T20:42:38.901Z,8.88
2019-04-07T20:45:18.580Z,8.73
2019-04-07T20:48:07.278Z,8.58
2019-04-07T20:50:37.696Z,8.08
2019-04-07T20:53:29.023Z,8.45
2019-04-07T20:56:14.454Z,7.67
2019-04-07T20:59:04.646Z,7.62
2019-04-07T21:01:36.552Z,7.47
2019-04-07T21:04:10.639Z,7.83
2019-04-07T21:06:44.243Z,6.83
2019-04-07T21:09:19.872Z,7.20
2019-04-07T21:11:53.385Z,6.97
2019-04-07T21:14:26.420Z,7.00
2019-04-07T21:16:59.402Z,6.97
2019-04-07T21:19:36.513Z,6.42
2019-04-07T21:22:06.684Z,6.25
2019-04-07T21:24:43.459Z,6.60
2019-04-07T21:27:19.306Z,6.42
2019-04-07T21:30:06.526Z,6.08
2019-04-07T21:32:48.626Z,6.58
2019-04-07T21:35:34.940Z,6.40
2019-04-07T21:38:10.148Z,5.92
2019-04-07T21:40:52.184Z,6.00
2019-04-07T21:43:38.117Z,6.55
2019-04-07T21:46:20.155Z,6.55
2019-04-07T21:48:51.219Z,7.08
2019-04-07T21:51:24.782Z,6.33
2019-04-07T21:54:02.313Z,5.95
2019-04-07T21:56:46.073Z,6.30
2019-04-07T21:59:18.467Z,5.83
2019-04-07T22:02:09.124Z,6.12
2019-04-07T22:04:50.648Z,6.15
2019-04-07T22:07:29.660Z,6.40
2019-04-07T22:09:57.048Z,6.20
2019-04-07T22:12:28.017Z,6.00
2019-04-07T22:14:55.411Z,5.90
2019-04-07T22:17:23.836Z,5.45
2019-04-07T22:19:53.098Z,5.70
2019-04-07T22:22:24.102Z,6.78
2019-04-07T22:24:51.671Z,6.25
2019-04-07T22:27:22.650Z,6.30
2019-04-07T22:29:51.174Z,5.80
2019-04-07T22:32:22.098Z,6.12
2019-04-07T22:34:50.361Z,6.22
2019-04-07T22:37:21.129Z,5.83
2019-04-07T22:39:49.158Z,5.70
2019-04-07T22:42:18.373Z,4.55
2019-04-07T22:44:49.883Z,4.55
2019-04-07T22:47:19.749Z,5.20
2019-04-07T22:49:48.509Z,4.65
2019-04-07T22:52:17.962Z,4.83
2019-04-07T22:54:47.730Z,4.60
2019-04-07T22:57:16.328Z,4.45
2019-04-07T22:59:44.745Z,4.70
2019-04-07T23:02:13.720Z,5.10
2019-04-07T23:04:42.655Z,5.30
2019-04-07T23:07:11.728Z,4.97
2019-04-07T23:09:40.995Z,4.87
2019-04-07T23:12:10.577Z,5.33
2019-04-07T23:14:40.050Z,4.42
2019-04-07T23:17:08.705Z,5.60
2019-04-07T23:19:37.833Z,4.80
2019-04-07T23:22:06.451Z,4.50
2019-04-07T23:24:34.942Z,4.55
2019-04-07T23:27:04.126Z,4.85
2019-04-07T23:29:32.736Z,5.00
2019-04-07T23:32:01.849Z,4.80
2019-04-07T23:34:31.132Z,5.25
2019-04-07T23:36:59.728Z,5.40
2019-04-07T23:39:29.178Z,5.00
2019-04-07T23:41:58.584Z,5.55
2019-04-07T23:44:27.688Z,5.53
2019-04-07T23:46:57.111Z,4.80
2019-04-07T23:49:26.067Z,5.65
2019-04-07T23:51:55.249Z,5.33
2019-04-07T23:54:23.676Z,5.17
2019-04-07T23:56:52.057Z,4.90
2019-04-07T23:59:20.713Z,4.85
